Time;durP1;ratioP1;P1;durP2;ratioP2;P2;SDS_P1;SDS_P2;PMS_P1;PMS_P2;Temp;Humidity;BMP_temperature;BMP_pressure;BME280_temperature;BME280_humidity;BME280_pressure;Samples;Min_cycle;Max_cycle;Signal;HPM_P1;HPM_P2
2022/05/27 00:00:53;;;;;;;3.20;1.33;;;;;;;;;;4946955;28;20035;-71
2022/05/27 00:03:19;;;;;;;5.22;1.65;;;;;;;;;;4941859;28;20042;-70
2022/05/27 00:05:48;;;;;;;5.65;1.50;;;;;;;;;;4952177;28;20043;-71
2022/05/27 00:08:14;;;;;;;3.58;1.48;;;;;;;;;;4940348;28;20048;-71
2022/05/27 00:10:39;;;;;;;4.43;1.40;;;;;;;;;;4945731;28;20043;-71
2022/05/27 00:13:05;;;;;;;5.93;1.67;;;;;;;;;;4944609;28;20038;-71
2022/05/27 00:15:30;;;;;;;3.15;1.70;;;;;;;;;;4947531;28;20051;-71
2022/05/27 00:17:56;;;;;;;3.22;1.63;;;;;;;;;;4945883;28;20093;-71
2022/05/27 00:20:22;;;;;;;3.97;1.58;;;;;;;;;;4945211;28;20739;-70
2022/05/27 00:22:47;;;;;;;9.10;1.90;;;;;;;;;;4942983;28;20039;-70
2022/05/27 00:25:13;;;;;;;6.15;1.90;;;;;;;;;;4945918;28;20035;-70
2022/05/27 00:27:39;;;;;;;4.43;1.80;;;;;;;;;;4948958;29;20150;-71
2022/05/27 00:30:05;;;;;;;4.22;1.45;;;;;;;;;;4950607;28;20043;-70
2022/05/27 00:32:31;;;;;;;5.82;1.90;;;;;;;;;;4950385;28;20780;-70
2022/05/27 00:34:56;;;;;;;4.43;2.00;;;;;;;;;;4934310;28;20130;-71
2022/05/27 00:37:21;;;;;;;5.53;1.95;;;;;;;;;;4937892;28;20380;-70
2022/05/27 00:39:47;;;;;;;7.35;2.22;;;;;;;;;;4944576;28;20496;-71
2022/05/27 00:42:12;;;;;;;6.32;2.00;;;;;;;;;;4944642;28;20075;-71
2022/05/27 00:44:37;;;;;;;8.90;2.10;;;;;;;;;;4944388;28;20050;-70
2022/05/27 00:47:13;;;;;;;6.55;2.05;;;;;;;;;;4947859;28;20035;-70
2022/05/27 00:50:01;;;;;;;5.35;2.13;;;;;;;;;;4959112;28;20059;-71
2022/05/27 00:52:30;;;;;;;9.93;2.28;;;;;;;;;;4948468;28;20047;-70
2022/05/27 00:54:55;;;;;;;4.90;2.25;;;;;;;;;;4949716;28;20031;-71
2022/05/27 00:57:30;;;;;;;6.38;2.38;;;;;;;;;;4948710;29;20432;-71
2022/05/27 01:00:07;;;;;;;10.68;2.75;;;;;;;;;;4949127;28;20047;-71
2022/05/27 01:02:34;;;;;;;5.97;2.35;;;;;;;;;;4943103;28;20039;-71
2022/05/27 01:05:01;;;;;;;4.68;1.80;;;;;;;;;;4948363;28;20041;-71
2022/05/27 01:07:26;;;;;;;7.82;1.90;;;;;;;;;;4948453;28;20036;-70
2022/05/27 01:09:52;;;;;;;8.15;2.03;;;;;;;;;;4947233;28;20026;-71
2022/05/27 01:12:55;;;;;;;10.52;2.60;;;;;;;;;;4949833;28;20416;-71
2022/05/27 01:15:42;;;;;;;5.50;1.92;;;;;;;;;;4946011;28;20058;-71
2022/05/27 01:21:45;;;;;;;7.85;2.22;;;;;;;;;;4943634;28;20078;-71
2022/05/27 01:24:26;;;;;;;7.82;2.13;;;;;;;;;;4944138;29;20039;-71
2022/05/27 01:27:24;;;;;;;7.00;2.15;;;;;;;;;;4948629;28;20576;-71
2022/05/27 01:30:12;;;;;;;5.90;2.22;;;;;;;;;;4946602;28;20062;-70
2022/05/27 01:32:51;;;;;;;6.30;2.80;;;;;;;;;;4948623;28;20070;-71
2022/05/27 01:35:39;;;;;;;7.13;2.40;;;;;;;;;;4945501;28;20540;-71
2022/05/27 01:38:12;;;;;;;6.30;2.17;;;;;;;;;;4941197;28;20061;-70
2022/05/27 01:41:07;;;;;;;9.98;2.35;;;;;;;;;;4947579;28;20718;-71
2022/05/27 01:43:52;;;;;;;6.90;2.47;;;;;;;;;;4949381;28;20043;-70
2022/05/27 01:46:21;;;;;;;8.25;2.28;;;;;;;;;;4948790;28;20508;-71
2022/05/27 01:49:16;;;;;;;9.38;2.42;;;;;;;;;;4947642;28;20042;-71
2022/05/27 01:51:55;;;;;;;8.35;2.50;;;;;;;;;;4945403;28;20054;-70
2022/05/27 01:54:34;;;;;;;7.93;1.90;;;;;;;;;;4946649;28;20054;-71
2022/05/27 01:57:08;;;;;;;11.00;3.10;;;;;;;;;;4946311;28;20040;-71
2022/05/27 02:00:00;;;;;;;11.95;2.55;;;;;;;;;;4946628;28;20546;-71
2022/05/27 02:02:28;;;;;;;7.65;2.13;;;;;;;;;;4943472;28;20048;-71
2022/05/27 02:05:07;;;;;;;6.68;2.20;;;;;;;;;;4946336;28;20059;-71
2022/05/27 02:07:32;;;;;;;7.63;2.35;;;;;;;;;;4942044;28;20043;-71
2022/05/27 02:10:16;;;;;;;12.95;2.53;;;;;;;;;;4946889;28;20035;-70
2022/05/27 02:12:56;;;;;;;7.70;2.00;;;;;;;;;;4943507;28;20043;-71
2022/05/27 02:15:35;;;;;;;6.78;2.22;;;;;;;;;;4947762;28;20528;-70
2022/05/27 02:18:10;;;;;;;10.73;2.22;;;;;;;;;;4948046;28;20032;-70
2022/05/27 02:20:41;;;;;;;3.70;1.83;;;;;;;;;;4946248;28;20671;-70
2022/05/27 02:23:16;;;;;;;9.45;2.30;;;;;;;;;;4943806;28;20046;-71
2022/05/27 02:25:44;;;;;;;6.78;2.28;;;;;;;;;;4948082;28;20051;-71
2022/05/27 02:28:12;;;;;;;5.57;2.05;;;;;;;;;;4948826;28;20035;-71
2022/05/27 02:30:41;;;;;;;7.18;2.53;;;;;;;;;;4943471;28;20386;-71
2022/05/27 02:36:00;;;;;;;6.90;2.13;;;;;;;;;;4940766;28;20089;-71
2022/05/27 02:38:27;;;;;;;3.15;1.98;;;;;;;;;;4942999;28;20039;-71
2022/05/27 02:41:15;;;;;;;8.43;2.25;;;;;;;;;;4947432;28;20559;-71
2022/05/27 02:43:57;;;;;;;9.88;2.10;;;;;;;;;;4940503;28;20031;-71
2022/05/27 02:46:56;;;;;;;9.95;2.50;;;;;;;;;;4946108;28;20330;-71
2022/05/27 02:49:31;;;;;;;5.78;1.85;;;;;;;;;;4946705;28;20047;-71
2022/05/27 02:52:20;;;;;;;9.18;2.25;;;;;;;;;;4940215;29;20027;-71
2022/05/27 02:54:52;;;;;;;5.45;2.20;;;;;;;;;;4947181;28;20043;-70
2022/05/27 02:57:35;;;;;;;8.23;2.55;;;;;;;;;;4946705;29;20040;-71
2022/05/27 03:00:05;;;;;;;12.30;2.42;;;;;;;;;;4947372;28;20108;-71
2022/05/27 03:02:30;;;;;;;9.98;2.05;;;;;;;;;;4960605;28;20097;-71
2022/05/27 03:04:58;;;;;;;5.97;2.53;;;;;;;;;;4947236;28;20035;-71
2022/05/27 03:07:48;;;;;;;6.07;2.17;;;;;;;;;;4946926;28;20042;-71
2022/05/27 03:10:20;;;;;;;8.27;2.28;;;;;;;;;;4947322;28;20047;-71
2022/05/27 03:13:04;;;;;;;6.25;2.33;;;;;;;;;;4945354;28;20039;-71
2022/05/27 03:15:40;;;;;;;5.18;2.10;;;;;;;;;;4947075;28;20054;-71
2022/05/27 03:18:11;;;;;;;8.07;2.28;;;;;;;;;;4945902;28;20027;-70
2022/05/27 03:20:40;;;;;;;8.98;2.45;;;;;;;;;;4939779;28;20050;-71
2022/05/27 03:23:41;;;;;;;10.05;2.53;;;;;;;;;;4939330;28;20051;-71
2022/05/27 03:26:20;;;;;;;6.45;2.33;;;;;;;;;;4918666;28;20071;-71
2022/05/27 03:29:01;;;;;;;8.90;2.50;;;;;;;;;;4946533;28;20056;-71
2022/05/27 03:31:32;;;;;;;6.70;2.10;;;;;;;;;;4945878;29;20123;-71
2022/05/27 03:34:12;;;;;;;9.15;2.63;;;;;;;;;;4947201;28;20027;-70
2022/05/27 03:37:00;;;;;;;9.27;2.88;;;;;;;;;;4944891;28;20090;-71
2022/05/27 03:39:41;;;;;;;9.35;2.85;;;;;;;;;;4945893;28;20124;-70
2022/05/27 03:42:08;;;;;;;10.73;2.80;;;;;;;;;;4941624;29;20047;-71
2022/05/27 03:44:34;;;;;;;7.15;2.75;;;;;;;;;;4944577;28;20420;-71
2022/05/27 03:47:00;;;;;;;11.00;3.00;;;;;;;;;;4947490;28;20046;-71
2022/05/27 03:49:27;;;;;;;9.38;3.38;;;;;;;;;;4946305;28;20051;-71
2022/05/27 03:51:55;;;;;;;15.50;3.60;;;;;;;;;;4946110;28;20030;-71
2022/05/27 03:54:21;;;;;;;7.03;2.78;;;;;;;;;;4946030;28;20552;-71
2022/05/27 03:56:47;;;;;;;12.00;3.25;;;;;;;;;;4946539;28;20039;-71
2022/05/27 03:59:14;;;;;;;12.10;3.58;;;;;;;;;;4946357;28;20047;-71
2022/05/27 04:01:42;;;;;;;10.60;3.63;;;;;;;;;;4939677;28;20039;-71
2022/05/27 04:04:10;;;;;;;12.30;3.53;;;;;;;;;;4938799;28;20038;-70
2022/05/27 04:06:36;;;;;;;13.23;4.05;;;;;;;;;;4939117;28;20084;-70
2022/05/27 04:09:02;;;;;;;13.68;4.07;;;;;;;;;;4943467;28;20069;-71
2022/05/27 04:11:28;;;;;;;9.43;3.60;;;;;;;;;;4946601;28;20516;-71
2022/05/27 04:13:54;;;;;;;9.18;3.90;;;;;;;;;;4940775;28;20062;-71
2022/05/27 04:16:20;;;;;;;12.50;3.30;;;;;;;;;;4947110;28;20071;-70
2022/05/27 04:18:45;;;;;;;12.98;4.05;;;;;;;;;;4946167;28;20027;-71
2022/05/27 04:21:11;;;;;;;11.48;4.03;;;;;;;;;;4941622;28;20047;-71
2022/05/27 04:23:37;;;;;;;11.73;3.80;;;;;;;;;;4941292;28;20046;-70
2022/05/27 04:26:03;;;;;;;11.93;4.60;;;;;;;;;;4944769;28;20054;-71
2022/05/27 04:28:29;;;;;;;16.67;4.28;;;;;;;;;;4944428;28;20043;-71
2022/05/27 04:30:54;;;;;;;13.48;4.15;;;;;;;;;;4947009;28;20034;-71
2022/05/27 04:33:19;;;;;;;15.90;4.78;;;;;;;;;;4947067;28;20075;-71
2022/05/27 04:35:46;;;;;;;10.68;4.20;;;;;;;;;;4944453;28;20051;-71
2022/05/27 04:38:12;;;;;;;12.73;4.00;;;;;;;;;;4960269;28;20036;-71
2022/05/27 04:40:38;;;;;;;12.15;4.57;;;;;;;;;;4945260;28;20062;-71
2022/05/27 04:43:04;;;;;;;15.38;4.38;;;;;;;;;;4943036;28;20476;-70
2022/05/27 04:45:29;;;;;;;14.63;4.28;;;;;;;;;;4945286;28;20515;-71
2022/05/27 04:47:55;;;;;;;15.95;4.10;;;;;;;;;;4945407;29;20531;-71
2022/05/27 04:50:21;;;;;;;17.40;4.90;;;;;;;;;;4945383;28;20043;-71
2022/05/27 04:52:47;;;;;;;16.70;5.18;;;;;;;;;;4946813;28;20040;-71
2022/05/27 04:55:14;;;;;;;15.40;4.90;;;;;;;;;;4944916;28;20062;-71
2022/05/27 04:57:47;;;;;;;14.93;5.07;;;;;;;;;;4944166;28;20035;-71
2022/05/27 05:00:16;;;;;;;16.88;4.90;;;;;;;;;;4943113;28;20075;-71
2022/05/27 05:02:42;;;;;;;14.82;4.80;;;;;;;;;;4946661;28;20055;-71
2022/05/27 05:05:10;;;;;;;17.17;4.38;;;;;;;;;;4942417;28;20047;-71
2022/05/27 05:07:36;;;;;;;23.38;5.32;;;;;;;;;;4946358;28;20039;-71
2022/05/27 05:10:02;;;;;;;18.35;4.82;;;;;;;;;;4945295;28;20036;-71
2022/05/27 05:12:28;;;;;;;13.27;4.32;;;;;;;;;;4950961;28;20039;-71
2022/05/27 05:14:53;;;;;;;17.40;4.72;;;;;;;;;;4947081;28;20062;-71
2022/05/27 05:17:19;;;;;;;12.75;5.20;;;;;;;;;;4946803;28;20081;-71
2022/05/27 05:19:45;;;;;;;18.13;4.93;;;;;;;;;;4944631;28;20044;-71
2022/05/27 05:22:12;;;;;;;14.25;4.85;;;;;;;;;;4946333;28;20023;-70
2022/05/27 05:24:38;;;;;;;12.50;4.15;;;;;;;;;;4947466;28;20051;-71
2022/05/27 05:27:04;;;;;;;12.98;5.05;;;;;;;;;;4949624;28;20066;-71
2022/05/27 05:29:29;;;;;;;12.63;4.75;;;;;;;;;;4948600;28;20051;-71
2022/05/27 05:31:54;;;;;;;14.68;5.18;;;;;;;;;;4945275;28;20166;-70
2022/05/27 05:34:20;;;;;;;18.20;5.32;;;;;;;;;;4948415;28;20078;-71
2022/05/27 05:36:46;;;;;;;16.50;5.45;;;;;;;;;;4943561;28;20504;-70
2022/05/27 05:39:11;;;;;;;12.85;5.10;;;;;;;;;;4946427;28;20077;-71
2022/05/27 05:41:39;;;;;;;16.67;5.28;;;;;;;;;;4948513;28;20048;-71
2022/05/27 05:44:07;;;;;;;17.83;5.45;;;;;;;;;;4947407;28;20039;-71
2022/05/27 05:46:34;;;;;;;17.98;5.82;;;;;;;;;;4942208;28;21205;-71
2022/05/27 05:49:00;;;;;;;16.30;5.68;;;;;;;;;;4940619;28;20051;-71
2022/05/27 05:51:26;;;;;;;17.50;5.85;;;;;;;;;;4939536;28;20051;-70
2022/05/27 05:53:51;;;;;;;17.27;6.07;;;;;;;;;;4954134;28;20055;-71
2022/05/27 05:56:16;;;;;;;12.88;5.38;;;;;;;;;;4939632;28;20043;-71
2022/05/27 05:58:42;;;;;;;17.45;5.90;;;;;;;;;;4939362;28;20126;-71
2022/05/27 06:01:08;;;;;;;16.70;5.65;;;;;;;;;;4938225;28;20169;-71
2022/05/27 06:03:33;;;;;;;15.43;5.80;;;;;;;;;;4940806;28;20132;-71
2022/05/27 06:05:58;;;;;;;12.80;5.57;;;;;;;;;;4948985;28;20545;-71
2022/05/27 06:08:24;;;;;;;13.20;5.68;;;;;;;;;;4953215;28;20451;-69
2022/05/27 06:10:49;;;;;;;12.23;6.00;;;;;;;;;;4937203;28;20489;-71
2022/05/27 06:13:15;;;;;;;17.27;6.57;;;;;;;;;;4936245;28;20058;-71
2022/05/27 06:15:40;;;;;;;14.98;6.22;;;;;;;;;;4939809;28;20412;-71
2022/05/27 06:18:06;;;;;;;20.95;6.90;;;;;;;;;;4939549;28;20039;-71
2022/05/27 06:20:33;;;;;;;19.73;7.07;;;;;;;;;;4933417;28;20120;-68
2022/05/27 06:23:02;;;;;;;15.65;6.75;;;;;;;;;;4937370;28;20063;-70
2022/05/27 06:25:27;;;;;;;15.80;7.32;;;;;;;;;;4942647;28;20126;-71
2022/05/27 06:34:23;;;;;;;22.00;7.80;;;;;;;;;;4946741;28;20457;-71
2022/05/27 06:36:05;;;;;;;18.85;7.00;;;;;;;;;;4944116;28;20082;-69
2022/05/27 06:38:31;;;;;;;17.33;6.20;;;;;;;;;;4940199;28;20067;-72
2022/05/27 06:40:56;;;;;;;18.25;6.85;;;;;;;;;;4938734;28;20133;-71
2022/05/27 06:43:21;;;;;;;15.90;6.60;;;;;;;;;;4937955;28;20051;-70
2022/05/27 06:45:47;;;;;;;21.60;7.65;;;;;;;;;;4938314;28;20039;-70
2022/05/27 06:48:12;;;;;;;18.13;7.63;;;;;;;;;;4937501;28;20075;-70
2022/05/27 06:50:37;;;;;;;17.10;7.03;;;;;;;;;;4935457;28;20476;-71
2022/05/27 06:53:03;;;;;;;19.20;7.03;;;;;;;;;;4936375;28;20883;-72
2022/05/27 06:55:28;;;;;;;23.15;6.93;;;;;;;;;;4940187;28;20508;-71
2022/05/27 06:57:53;;;;;;;19.42;7.15;;;;;;;;;;4940961;28;20122;-71
2022/05/27 07:00:20;;;;;;;18.63;7.28;;;;;;;;;;4943335;28;20177;-71
2022/05/27 07:02:46;;;;;;;19.48;7.35;;;;;;;;;;4937295;28;20062;-70
2022/05/27 07:05:12;;;;;;;21.65;7.45;;;;;;;;;;4944962;28;20039;-71
2022/05/27 07:07:37;;;;;;;18.42;7.10;;;;;;;;;;4940483;28;20050;-71
2022/05/27 07:10:04;;;;;;;16.05;7.25;;;;;;;;;;4941195;28;20443;-70
2022/05/27 07:12:29;;;;;;;16.92;6.75;;;;;;;;;;4935254;28;20877;-71
2022/05/27 07:14:54;;;;;;;19.65;6.72;;;;;;;;;;4939692;28;20070;-71
2022/05/27 07:17:20;;;;;;;13.98;6.15;;;;;;;;;;4940751;28;20039;-72
2022/05/27 07:19:45;;;;;;;16.58;6.97;;;;;;;;;;4930177;28;20059;-71
2022/05/27 07:22:11;;;;;;;18.02;7.30;;;;;;;;;;4938650;28;20027;-70
2022/05/27 07:24:38;;;;;;;18.17;7.28;;;;;;;;;;4943345;28;20101;-71
2022/05/27 07:27:03;;;;;;;17.60;6.85;;;;;;;;;;4940983;28;20055;-71
2022/05/27 07:29:29;;;;;;;17.45;7.53;;;;;;;;;;4934018;28;20058;-71
2022/05/27 07:31:54;;;;;;;15.82;6.78;;;;;;;;;;4925733;28;20044;-70
2022/05/27 07:34:20;;;;;;;17.98;6.63;;;;;;;;;;4936358;28;20144;-70
2022/05/27 07:36:45;;;;;;;17.17;7.20;;;;;;;;;;4938979;28;20035;-69
2022/05/27 07:39:11;;;;;;;16.90;6.90;;;;;;;;;;4939720;28;20109;-68
2022/05/27 07:41:37;;;;;;;14.30;6.28;;;;;;;;;;4937155;28;20271;-68
2022/05/27 07:44:04;;;;;;;18.08;7.15;;;;;;;;;;4937870;28;20046;-68
2022/05/27 07:46:31;;;;;;;13.55;6.57;;;;;;;;;;4937268;28;20093;-70
2022/05/27 07:48:57;;;;;;;16.33;6.68;;;;;;;;;;4934570;28;20038;-70
2022/05/27 07:51:22;;;;;;;13.30;6.85;;;;;;;;;;4933606;28;20499;-71
2022/05/27 07:53:48;;;;;;;13.45;7.30;;;;;;;;;;4941516;28;20105;-71
2022/05/27 07:56:13;;;;;;;11.02;6.30;;;;;;;;;;4941256;28;20116;-70
2022/05/27 07:58:39;;;;;;;12.70;7.43;;;;;;;;;;4945180;28;20043;-71
2022/05/27 08:01:06;;;;;;;12.27;6.80;;;;;;;;;;4927471;28;20104;-70
2022/05/27 08:03:32;;;;;;;18.75;7.60;;;;;;;;;;4935814;29;20040;-71
2022/05/27 08:05:58;;;;;;;13.95;7.15;;;;;;;;;;4941625;28;20043;-71
2022/05/27 08:08:24;;;;;;;10.88;7.53;;;;;;;;;;4939331;28;20582;-71
2022/05/27 08:10:50;;;;;;;11.18;7.40;;;;;;;;;;4942278;28;20089;-71
2022/05/27 08:13:15;;;;;;;10.82;7.03;;;;;;;;;;4936097;28;20039;-71
2022/05/27 08:15:41;;;;;;;16.17;7.72;;;;;;;;;;4936578;28;20059;-71
2022/05/27 08:18:06;;;;;;;15.05;6.97;;;;;;;;;;4937193;28;20074;-70
2022/05/27 08:20:34;;;;;;;10.63;5.90;;;;;;;;;;4942257;28;20500;-70
2022/05/27 08:23:00;;;;;;;14.00;7.20;;;;;;;;;;4939119;28;20039;-71
2022/05/27 08:25:27;;;;;;;13.02;7.05;;;;;;;;;;4938759;28;20093;-69
2022/05/27 08:27:54;;;;;;;11.02;6.53;;;;;;;;;;4954810;28;20035;-69
2022/05/27 08:30:23;;;;;;;11.13;6.20;;;;;;;;;;4950491;28;20043;-70
2022/05/27 08:32:48;;;;;;;9.75;6.18;;;;;;;;;;4943219;28;20101;-71
2022/05/27 08:38:07;;;;;;;12.88;6.30;;;;;;;;;;4939568;28;20105;-70
2022/05/27 08:41:00;;;;;;;6.75;5.38;;;;;;;;;;4932697;28;20052;-69
2022/05/27 08:43:59;;;;;;;9.50;5.43;;;;;;;;;;4918054;28;20056;-67
2022/05/27 08:46:41;;;;;;;10.93;5.60;;;;;;;;;;4919506;28;20133;-68
2022/05/27 08:49:12;;;;;;;11.23;5.78;;;;;;;;;;4919583;28;20039;-69
2022/05/27 08:52:12;;;;;;;8.55;5.93;;;;;;;;;;4963025;28;20043;-70
2022/05/27 08:54:48;;;;;;;11.00;5.88;;;;;;;;;;4918470;28;20064;-68
2022/05/27 09:00:06;;;;;;;8.75;5.55;;;;;;;;;;4921512;28;20085;-69
2022/05/27 09:02:50;;;;;;;9.23;6.05;;;;;;;;;;4921582;28;20071;-71
2022/05/27 09:05:32;;;;;;;10.82;6.43;;;;;;;;;;4938522;28;20039;-70
2022/05/27 09:08:12;;;;;;;13.15;6.93;;;;;;;;;;4926177;28;20036;-69
2022/05/27 09:10:52;;;;;;;10.23;6.85;;;;;;;;;;4923840;28;20052;-68
2022/05/27 09:13:29;;;;;;;8.15;6.60;;;;;;;;;;4922631;28;20027;-67
2022/05/27 09:16:19;;;;;;;8.70;6.85;;;;;;;;;;4923733;28;20039;-69
2022/05/27 09:18:47;;;;;;;10.38;6.22;;;;;;;;;;4922172;28;20047;-69
2022/05/27 09:21:24;;;;;;;9.98;6.43;;;;;;;;;;4922998;28;21351;-68
2022/05/27 09:24:18;;;;;;;10.25;6.80;;;;;;;;;;4923882;28;20052;-68
2022/05/27 09:27:21;;;;;;;11.48;7.35;;;;;;;;;;4921634;28;20039;-68
2022/05/27 09:30:15;;;;;;;8.82;7.32;;;;;;;;;;4922995;28;20085;-68
2022/05/27 09:32:51;;;;;;;10.90;7.57;;;;;;;;;;4921379;28;20185;-69
2022/05/27 09:35:45;;;;;;;10.95;8.00;;;;;;;;;;4918958;28;20437;-68
2022/05/27 09:38:32;;;;;;;10.73;7.00;;;;;;;;;;4920486;28;20040;-68
2022/05/27 09:41:28;;;;;;;11.63;7.88;;;;;;;;;;4920973;28;20615;-67
2022/05/27 09:44:06;;;;;;;11.07;7.85;;;;;;;;;;4924873;28;20547;-67
2022/05/27 09:46:32;;;;;;;13.73;8.32;;;;;;;;;;4939563;28;20054;-67
2022/05/27 09:48:59;;;;;;;11.55;8.48;;;;;;;;;;4943252;28;20031;-71
2022/05/27 09:51:26;;;;;;;12.10;8.35;;;;;;;;;;4938358;28;20046;-69
2022/05/27 09:53:57;;;;;;;12.82;8.15;;;;;;;;;;4934879;28;20054;-69
2022/05/27 09:56:55;;;;;;;13.93;8.93;;;;;;;;;;4939717;28;20587;-69
2022/05/27 09:59:53;;;;;;;14.63;8.48;;;;;;;;;;4959743;28;20424;-69
2022/05/27 10:02:28;;;;;;;10.77;7.60;;;;;;;;;;4944773;28;20471;-68
2022/05/27 10:04:54;;;;;;;8.70;5.15;;;;;;;;;;4947193;28;20031;-68
2022/05/27 10:07:50;;;;;;;7.95;4.80;;;;;;;;;;4946640;28;20515;-68
2022/05/27 10:10:37;;;;;;;6.32;4.93;;;;;;;;;;4958255;28;20054;-67
2022/05/27 10:13:30;;;;;;;7.00;3.92;;;;;;;;;;4937334;28;20499;-67
2022/05/27 10:16:10;;;;;;;5.72;4.35;;;;;;;;;;4946677;28;20059;-67
2022/05/27 10:18:36;;;;;;;8.18;5.30;;;;;;;;;;4946248;28;20039;-67
2022/05/27 10:21:04;;;;;;;7.95;4.60;;;;;;;;;;4949737;28;20568;-67
2022/05/27 10:23:36;;;;;;;13.57;4.25;;;;;;;;;;4941971;28;20027;-68
2022/05/27 10:26:22;;;;;;;5.13;3.78;;;;;;;;;;4934951;28;20046;-67
2022/05/27 10:29:13;;;;;;;8.43;4.53;;;;;;;;;;4940555;28;20130;-69
2022/05/27 10:31:50;;;;;;;5.88;3.75;;;;;;;;;;4939459;28;20427;-69
2022/05/27 10:34:40;;;;;;;4.30;3.40;;;;;;;;;;4940603;28;20427;-69
2022/05/27 10:37:22;;;;;;;6.88;3.40;;;;;;;;;;4933200;29;20507;-69
2022/05/27 10:40:19;;;;;;;3.97;3.38;;;;;;;;;;4941022;29;20062;-70
2022/05/27 10:43:12;;;;;;;3.78;3.00;;;;;;;;;;4936989;28;20420;-69
2022/05/27 10:45:40;;;;;;;5.65;3.47;;;;;;;;;;4943346;28;20069;-69
2022/05/27 10:48:15;;;;;;;4.32;3.05;;;;;;;;;;4941930;28;20478;-69
2022/05/27 10:50:51;;;;;;;6.00;2.88;;;;;;;;;;4938582;28;20164;-69
2022/05/27 10:53:41;;;;;;;4.28;3.15;;;;;;;;;;4939941;28;20555;-69
2022/05/27 10:56:18;;;;;;;4.75;3.08;;;;;;;;;;4940421;28;20082;-69
2022/05/27 11:02:27;;;;;;;6.15;3.25;;;;;;;;;;4935927;28;20058;-70
2022/05/27 11:05:55;;;;;;;4.15;2.55;;;;;;;;;;4954957;28;20031;-69
2022/05/27 11:08:28;;;;;;;3.78;2.53;;;;;;;;;;5011655;28;20431;-70
2022/05/27 11:11:20;;;;;;;3.97;3.20;;;;;;;;;;5012349;28;20065;-69
2022/05/27 11:17:25;;;;;;;;;;;;;;;;;;4934059;28;20101;-69
2022/05/27 11:19:57;;;;;;;5.38;2.78;;;;;;;;;;4934662;28;20319;-69
2022/05/27 11:26:15;;;;;;;3.88;2.75;;;;;;;;;;4941773;28;20039;-67
2022/05/27 11:29:11;;;;;;;6.10;2.75;;;;;;;;;;4943200;28;20051;-67
2022/05/27 11:31:59;;;;;;;4.38;2.83;;;;;;;;;;4951894;28;20128;-67
2022/05/27 11:34:28;;;;;;;4.18;2.88;;;;;;;;;;4951009;28;20639;-66
2022/05/27 11:37:36;;;;;;;4.60;2.88;;;;;;;;;;4939930;28;20512;-68
2022/05/27 11:40:09;;;;;;;4.82;2.58;;;;;;;;;;4945404;28;20585;-67
2022/05/27 11:43:01;;;;;;;5.82;3.03;;;;;;;;;;4941970;29;20105;-67
2022/05/27 11:45:30;;;;;;;7.60;3.17;;;;;;;;;;4938099;29;20495;-67
2022/05/27 11:48:08;;;;;;;3.25;2.58;;;;;;;;;;4945384;28;20046;-67
2022/05/27 11:50:39;;;;;;;4.80;3.33;;;;;;;;;;4941645;28;20048;-66
2022/05/27 11:53:30;;;;;;;5.57;3.10;;;;;;;;;;4939335;28;20386;-66
2022/05/27 11:56:07;;;;;;;4.80;2.80;;;;;;;;;;4940044;28;20058;-68
2022/05/27 11:59:14;;;;;;;5.15;3.25;;;;;;;;;;4943769;28;20059;-67
2022/05/27 12:02:08;;;;;;;6.00;2.88;;;;;;;;;;4934857;29;20031;-71
2022/05/27 12:04:56;;;;;;;3.53;2.83;;;;;;;;;;4911771;28;20055;-68
2022/05/27 12:07:42;;;;;;;5.70;2.20;;;;;;;;;;4940560;28;20043;-68
2022/05/27 12:10:26;;;;;;;3.45;2.60;;;;;;;;;;4941654;28;20077;-68
2022/05/27 12:12:54;;;;;;;;;;;;;;;;;;4939873;28;20097;-68
2022/05/27 12:15:30;;;;;;;5.10;2.97;;;;;;;;;;4938871;28;19922;-68
2022/05/27 12:17:57;;;;;;;3.75;2.75;;;;;;;;;;4939466;28;20578;-68
2022/05/27 12:20:29;;;;;;;5.63;2.80;;;;;;;;;;4937838;28;20051;-68
2022/05/27 12:22:55;;;;;;;4.53;2.78;;;;;;;;;;4936418;28;20080;-67
2022/05/27 12:25:35;;;;;;;4.60;3.28;;;;;;;;;;4940406;28;20594;-67
2022/05/27 12:28:02;;;;;;;7.00;3.45;;;;;;;;;;4959007;28;20535;-67
2022/05/27 12:30:41;;;;;;;7.07;3.25;;;;;;;;;;4946363;28;20040;-67
2022/05/27 12:33:17;;;;;;;5.40;3.30;;;;;;;;;;4943178;28;20062;-67
2022/05/27 12:35:47;;;;;;;6.93;3.58;;;;;;;;;;4942076;28;20041;-67
2022/05/27 12:38:22;;;;;;;5.68;3.38;;;;;;;;;;4938938;28;20032;-67
2022/05/27 12:40:54;;;;;;;4.55;3.17;;;;;;;;;;4948789;28;20062;-67
2022/05/27 12:43:24;;;;;;;5.97;3.22;;;;;;;;;;4937752;28;20054;-67
2022/05/27 12:45:52;;;;;;;5.53;3.20;;;;;;;;;;4940707;28;20539;-67
2022/05/27 12:48:31;;;;;;;3.92;3.40;;;;;;;;;;4941920;28;20059;-67
2022/05/27 12:51:03;;;;;;;7.82;3.30;;;;;;;;;;4945054;28;20661;-67
2022/05/27 12:53:44;;;;;;;6.60;3.90;;;;;;;;;;4941719;28;20043;-67
2022/05/27 13:02:14;;;;;;;6.13;3.72;;;;;;;;;;4940729;28;20054;-67
2022/05/27 13:04:52;;;;;;;5.55;3.22;;;;;;;;;;4937912;28;20397;-67
2022/05/27 13:07:32;;;;;;;6.13;3.42;;;;;;;;;;4944845;28;20053;-67
2022/05/27 13:10:18;;;;;;;6.45;3.35;;;;;;;;;;4937288;28;20067;-67
2022/05/27 13:12:49;;;;;;;5.50;2.67;;;;;;;;;;4945228;28;20047;-67
2022/05/27 13:15:22;;;;;;;8.35;3.90;;;;;;;;;;4946698;28;20046;-67
2022/05/27 13:18:05;;;;;;;8.60;4.22;;;;;;;;;;4940177;28;20082;-67
2022/05/27 13:21:09;;;;;;;7.80;3.85;;;;;;;;;;4942598;28;20051;-67
2022/05/27 13:23:58;;;;;;;8.93;3.80;;;;;;;;;;4929354;28;20042;-67
2022/05/27 13:26:33;;;;;;;6.93;3.60;;;;;;;;;;4943567;28;20035;-67
2022/05/27 13:28:59;;;;;;;5.90;3.45;;;;;;;;;;4945072;28;20130;-67
2022/05/27 13:31:45;;;;;;;8.60;3.40;;;;;;;;;;4946260;28;20138;-67
2022/05/27 13:34:19;;;;;;;5.95;2.97;;;;;;;;;;4942435;28;20036;-67
2022/05/27 13:36:57;;;;;;;7.60;3.67;;;;;;;;;;4938154;28;20072;-67
2022/05/27 13:39:33;;;;;;;6.18;3.10;;;;;;;;;;4941754;28;20063;-67
2022/05/27 13:41:59;;;;;;;7.38;3.58;;;;;;;;;;4937482;28;20035;-67
2022/05/27 13:44:25;;;;;;;7.75;3.42;;;;;;;;;;4944320;28;20027;-68
2022/05/27 13:46:54;;;;;;;9.35;3.58;;;;;;;;;;4938924;28;20042;-67
2022/05/27 13:49:41;;;;;;;5.63;3.03;;;;;;;;;;4940958;28;20036;-67
2022/05/27 13:52:33;;;;;;;5.35;2.90;;;;;;;;;;4940337;28;20069;-67
2022/05/27 13:55:10;;;;;;;7.05;3.30;;;;;;;;;;4940258;28;20028;-67
2022/05/27 13:57:38;;;;;;;6.15;3.30;;;;;;;;;;4938796;28;20074;-67
2022/05/27 14:00:06;;;;;;;6.30;2.83;;;;;;;;;;4938991;28;20432;-67
2022/05/27 14:02:46;;;;;;;6.20;2.88;;;;;;;;;;4946513;28;20143;-67
2022/05/27 14:05:23;;;;;;;6.63;3.08;;;;;;;;;;4936322;28;20035;-68
2022/05/27 14:07:51;;;;;;;8.85;3.17;;;;;;;;;;4942107;28;20039;-68
2022/05/27 14:10:19;;;;;;;6.65;3.05;;;;;;;;;;4941045;28;20054;-68
2022/05/27 14:12:45;;;;;;;4.40;2.45;;;;;;;;;;4939359;28;20086;-67
2022/05/27 14:15:19;;;;;;;3.72;2.38;;;;;;;;;;4937170;28;20047;-67
2022/05/27 14:17:52;;;;;;;5.10;2.30;;;;;;;;;;4939490;28;20036;-67
2022/05/27 14:23:24;;;;;;;7.75;3.00;;;;;;;;;;4951438;28;20093;-68
2022/05/27 14:25:53;;;;;;;10.40;3.10;;;;;;;;;;4940011;28;20040;-69
2022/05/27 14:28:26;;;;;;;7.07;2.78;;;;;;;;;;4942860;28;20120;-69
2022/05/27 14:30:56;;;;;;;6.88;3.03;;;;;;;;;;4944132;28;20047;-68
2022/05/27 14:33:29;;;;;;;6.40;3.13;;;;;;;;;;4945707;28;20570;-68
2022/05/27 14:35:56;;;;;;;7.28;3.10;;;;;;;;;;4937903;28;20050;-68
2022/05/27 14:38:24;;;;;;;7.85;3.40;;;;;;;;;;4935869;29;20031;-67
2022/05/27 14:40:51;;;;;;;7.05;3.50;;;;;;;;;;4945441;28;20035;-67
2022/05/27 14:43:44;;;;;;;9.05;3.13;;;;;;;;;;4945956;28;20130;-67
2022/05/27 14:46:14;;;;;;;12.48;3.47;;;;;;;;;;4944517;28;20051;-67
2022/05/27 14:48:42;;;;;;;6.85;3.13;;;;;;;;;;4941072;28;20043;-67
2022/05/27 14:51:29;;;;;;;7.88;3.17;;;;;;;;;;4939631;28;20508;-66
2022/05/27 14:54:16;;;;;;;6.82;3.50;;;;;;;;;;4942415;28;20130;-67
2022/05/27 14:56:42;;;;;;;4.97;2.80;;;;;;;;;;4944421;28;20034;-66
2022/05/27 14:59:16;;;;;;;6.25;3.13;;;;;;;;;;4946490;28;20020;-67
2022/05/27 15:01:42;;;;;;;9.43;3.28;;;;;;;;;;4939625;28;20074;-67
2022/05/27 15:04:13;;;;;;;9.02;3.50;;;;;;;;;;4936530;28;20537;-67
2022/05/27 15:06:40;;;;;;;6.72;3.33;;;;;;;;;;4943203;28;20041;-67
2022/05/27 15:09:18;;;;;;;5.50;2.75;;;;;;;;;;4937333;28;20043;-66
2022/05/27 15:11:43;;;;;;;8.07;3.13;;;;;;;;;;4946996;28;20070;-66
2022/05/27 15:14:29;;;;;;;11.60;3.10;;;;;;;;;;4942317;28;20492;-67
2022/05/27 15:17:03;;;;;;;4.93;2.88;;;;;;;;;;4946117;28;20043;-68
2022/05/27 15:19:42;;;;;;;9.00;3.10;;;;;;;;;;4944428;28;20146;-68
2022/05/27 15:22:11;;;;;;;8.40;3.63;;;;;;;;;;4941136;28;20843;-69
2022/05/27 15:24:42;;;;;;;8.23;2.80;;;;;;;;;;4945703;28;20055;-71
2022/05/27 15:35:45;;;;;;;6.82;2.97;;;;;;;;;;4939681;29;20182;-70
2022/05/27 15:38:22;;;;;;;5.72;2.67;;;;;;;;;;4944073;28;20086;-70
2022/05/27 15:40:48;;;;;;;10.75;3.70;;;;;;;;;;4943272;28;20136;-70
2022/05/27 15:43:18;;;;;;;8.05;3.05;;;;;;;;;;4938041;28;20035;-70
2022/05/27 15:45:45;;;;;;;6.15;3.15;;;;;;;;;;4940614;28;20516;-70
2022/05/27 15:48:11;;;;;;;8.90;3.35;;;;;;;;;;4956160;28;20047;-70
2022/05/27 15:50:37;;;;;;;10.55;3.35;;;;;;;;;;4943226;28;20047;-70
2022/05/27 15:53:03;;;;;;;6.85;3.05;;;;;;;;;;4944012;29;20038;-70
2022/05/27 15:55:28;;;;;;;6.70;2.97;;;;;;;;;;4940887;28;20463;-68
2022/05/27 15:57:54;;;;;;;10.63;3.28;;;;;;;;;;4937910;28;20562;-68
2022/05/27 16:00:19;;;;;;;8.55;3.28;;;;;;;;;;4945182;28;20639;-68